Time;durP1;ratioP1;P1;durP2;ratioP2;P2;SDS_P1;SDS_P2;PMS_P1;PMS_P2;Temp;Humidity;BMP_temperature;BMP_pressure;BME280_temperature;BME280_humidity;BME280_pressure;Samples;Min_cycle;Max_cycle;Signal;HPM_P1;HPM_P2
2021/08/17 00:00:33;;;;;;;6.40;5.78;;;;;;;16.89;78.77;95732.00;4990839;28;20229;-87
2021/08/17 00:03:00;;;;;;;6.35;5.75;;;;;;;16.79;79.08;95730.84;4989532;28;20223;-88
2021/08/17 00:05:26;;;;;;;6.70;5.97;;;;;;;16.82;77.96;95728.63;4990617;28;20227;-87
2021/08/17 00:07:55;;;;;;;6.25;5.55;;;;;;;16.91;77.81;95737.00;4994319;28;20199;-87
2021/08/17 00:10:23;;;;;;;5.85;5.22;;;;;;;16.83;77.22;95730.22;4993886;28;20207;-86
2021/08/17 00:12:53;;;;;;;6.28;5.53;;;;;;;16.87;78.34;95733.22;4993794;28;20220;-88
2021/08/17 00:15:22;;;;;;;7.20;5.72;;;;;;;16.84;79.27;95728.44;4994436;28;20207;-86
2021/08/17 00:17:52;;;;;;;6.30;5.05;;;;;;;16.85;78.65;95733.41;4993688;28;20215;-87
2021/08/17 00:20:22;;;;;;;6.75;5.72;;;;;;;16.81;79.85;95724.44;4993519;28;20591;-87
2021/08/17 00:22:48;;;;;;;6.00;5.40;;;;;;;16.81;80.61;95728.84;4993361;28;20310;-89
2021/08/17 00:25:15;;;;;;;6.55;5.40;;;;;;;16.88;79.81;95724.41;4993468;28;20210;-86
2021/08/17 00:27:42;;;;;;;6.05;5.45;;;;;;;16.82;79.84;95723.44;4993372;28;20210;-87
2021/08/17 00:30:10;;;;;;;6.15;5.18;;;;;;;16.82;79.48;95722.63;4993904;28;20207;-87
2021/08/17 00:32:37;;;;;;;6.32;5.05;;;;;;;16.89;79.00;95723.41;4993289;28;20275;-86
2021/08/17 00:35:07;;;;;;;5.68;5.07;;;;;;;16.77;80.24;95719.88;4993220;28;20208;-87
2021/08/17 00:37:34;;;;;;;5.50;4.97;;;;;;;16.82;80.50;95720.03;4993626;28;20226;-88
2021/08/17 00:40:01;;;;;;;5.47;4.97;;;;;;;16.85;79.43;95719.63;4993083;28;20249;-88
2021/08/17 00:42:31;;;;;;;6.25;5.45;;;;;;;16.81;79.78;95721.03;4992800;28;20227;-86
2021/08/17 00:45:02;;;;;;;5.60;5.10;;;;;;;16.80;79.92;95727.25;4992608;28;20207;-86
2021/08/17 00:47:31;;;;;;;5.93;5.32;;;;;;;16.89;79.16;95720.78;4992907;28;20200;-87
2021/08/17 00:49:58;;;;;;;5.75;5.15;;;;;;;16.95;78.64;95716.53;4993086;28;20711;-87
2021/08/17 00:52:24;;;;;;;5.90;5.07;;;;;;;16.82;79.52;95727.84;4992776;28;20662;-88
2021/08/17 00:54:52;;;;;;;6.20;5.60;;;;;;;16.88;79.35;95727.81;4993076;28;20214;-86
2021/08/17 00:57:19;;;;;;;5.72;5.10;;;;;;;16.69;80.17;95730.53;4993320;28;20580;-87
2021/08/17 00:59:46;;;;;;;5.57;4.93;;;;;;;16.70;79.64;95730.34;4992916;28;20223;-88
2021/08/17 01:02:15;;;;;;;6.25;5.20;;;;;;;16.68;81.00;95727.16;4993668;28;20228;-87
2021/08/17 01:04:42;;;;;;;7.00;5.10;;;;;;;16.79;79.79;95726.44;4992178;28;20762;-89
2021/08/17 01:07:09;;;;;;;5.82;5.28;;;;;;;16.86;78.98;95736.81;4992480;28;20231;-87
2021/08/17 01:09:36;;;;;;;5.93;5.43;;;;;;;16.81;80.37;95747.03;4992376;28;20214;-87
2021/08/17 01:12:03;;;;;;;6.30;5.30;;;;;;;16.81;80.26;95734.03;4992175;28;20900;-87
2021/08/17 01:14:29;;;;;;;5.88;4.75;;;;;;;16.84;80.95;95734.41;4992167;28;20207;-87
2021/08/17 01:16:56;;;;;;;6.82;5.20;;;;;;;16.84;79.97;95729.22;4992181;28;20219;-87
2021/08/17 01:19:24;;;;;;;6.45;5.45;;;;;;;16.77;81.42;95733.66;4992755;28;20231;-86
2021/08/17 01:21:50;;;;;;;5.78;5.10;;;;;;;16.73;81.42;95723.91;4991547;28;20596;-86
2021/08/17 01:24:18;;;;;;;6.15;5.55;;;;;;;16.75;81.53;95743.47;4991539;28;20274;-87
2021/08/17 01:26:46;;;;;;;5.60;5.07;;;;;;;16.74;80.83;95754.88;4991975;28;20819;-87
2021/08/17 01:29:15;;;;;;;6.38;5.45;;;;;;;16.79;80.41;95749.06;4991675;28;20696;-86
2021/08/17 01:31:42;;;;;;;6.25;5.53;;;;;;;16.77;80.76;95757.06;4991899;28;20233;-87
2021/08/17 01:34:09;;;;;;;5.78;5.15;;;;;;;16.72;82.31;95759.53;4991633;28;20200;-87
2021/08/17 01:36:35;;;;;;;6.63;5.60;;;;;;;16.69;82.62;95765.13;4992217;28;20575;-89
2021/08/17 01:39:03;;;;;;;7.03;6.05;;;;;;;16.61;83.98;95777.56;4992140;28;20227;-87
2021/08/17 01:41:30;;;;;;;5.22;4.45;;;;;;;16.48;82.15;95784.41;4992281;28;20227;-87
2021/08/17 01:43:58;;;;;;;5.53;4.50;;;;;;;16.45;83.87;95799.63;4991911;28;21112;-87
2021/08/17 01:46:24;;;;;;;5.03;4.45;;;;;;;16.29;84.57;95797.50;4997904;28;20208;-87
2021/08/17 01:48:51;;;;;;;3.90;3.50;;;;;;;16.05;85.77;95805.00;4992712;28;20204;-88
2021/08/17 01:51:18;;;;;;;4.50;3.20;;;;;;;16.00;85.35;95804.78;4992520;28;20211;-87
2021/08/17 01:53:44;;;;;;;2.90;2.60;;;;;;;15.99;84.30;95810.19;4990543;28;20227;-88
2021/08/17 01:56:12;;;;;;;3.20;2.90;;;;;;;15.99;83.53;95810.19;4981040;28;20222;-88
2021/08/17 01:58:39;;;;;;;3.00;2.47;;;;;;;16.06;83.06;95811.78;4983351;28;20203;-87
2021/08/17 02:01:08;;;;;;;2.60;2.40;;;;;;;16.02;86.07;95813.19;4973011;28;20227;-88
2021/08/17 02:03:35;;;;;;;2.63;2.20;;;;;;;16.08;83.81;95814.16;4972609;28;20200;-87
2021/08/17 02:06:02;;;;;;;2.65;2.33;;;;;;;16.06;82.01;95803.97;4972026;28;20752;-87
2021/08/17 02:08:28;;;;;;;2.40;2.20;;;;;;;16.06;81.07;95816.97;4972743;28;20594;-88
2021/08/17 02:10:55;;;;;;;2.55;2.35;;;;;;;16.15;81.40;95810.56;4972808;28;20204;-86
2021/08/17 02:13:23;;;;;;;2.40;2.05;;;;;;;16.19;80.47;95806.53;4972458;28;20224;-87
2021/08/17 02:15:50;;;;;;;2.72;2.45;;;;;;;16.27;78.94;95813.31;4972831;28;20571;-86
2021/08/17 02:18:18;;;;;;;2.00;1.80;;;;;;;16.33;79.42;95809.09;4972474;28;20208;-86
2021/08/17 02:20:45;;;;;;;1.88;1.77;;;;;;;16.31;78.84;95813.69;4981983;28;20212;-87
2021/08/17 02:23:12;;;;;;;1.92;1.83;;;;;;;16.36;77.00;95822.44;4991887;28;20733;-88
2021/08/17 02:25:39;;;;;;;2.50;2.17;;;;;;;16.14;79.96;95834.94;4991738;28;20215;-87
2021/08/17 02:28:05;;;;;;;1.88;1.77;;;;;;;16.19;78.36;95837.72;4990469;28;20207;-87
2021/08/17 02:30:32;;;;;;;1.90;1.80;;;;;;;16.22;77.62;95841.69;4990948;28;20203;-87
2021/08/17 02:32:58;;;;;;;3.03;1.80;;;;;;;16.15;77.15;95839.13;4990504;28;20226;-87
2021/08/17 02:35:26;;;;;;;1.75;1.58;;;;;;;16.15;77.54;95846.13;4991121;28;20204;-87
2021/08/17 02:37:53;;;;;;;1.70;1.48;;;;;;;16.19;76.77;95847.28;4990772;28;20203;-85
2021/08/17 02:40:19;;;;;;;1.63;1.30;;;;;;;16.11;76.69;95847.53;4990399;28;20223;-84
2021/08/17 02:42:46;;;;;;;1.77;1.30;;;;;;;16.07;78.52;95848.94;4990794;28;20605;-86
2021/08/17 02:45:13;;;;;;;1.88;1.25;;;;;;;16.03;77.99;95860.72;4990994;28;20210;-88
2021/08/17 02:47:39;;;;;;;2.05;1.20;;;;;;;16.07;77.50;95857.53;4990596;28;20211;-87
2021/08/17 02:50:07;;;;;;;2.67;1.02;;;;;;;16.00;77.73;95866.31;4990489;28;20203;-88
2021/08/17 02:52:35;;;;;;;1.23;1.13;;;;;;;16.05;77.58;95864.72;4990409;28;20242;-86
2021/08/17 02:55:01;;;;;;;3.15;1.25;;;;;;;16.01;77.49;95871.31;4990323;28;20207;-88
2021/08/17 02:57:28;;;;;;;1.25;1.10;;;;;;;15.98;77.45;95874.31;4990205;28;20211;-87
2021/08/17 02:59:54;;;;;;;1.38;1.00;;;;;;;15.98;76.35;95871.72;4990300;28;20227;-87
2021/08/17 03:02:21;;;;;;;1.25;1.02;;;;;;;15.93;77.04;95871.56;4990467;28;20278;-87
2021/08/17 03:04:47;;;;;;;1.27;1.17;;;;;;;15.95;77.13;95872.16;4990150;28;20788;-88
2021/08/17 03:07:14;;;;;;;1.15;0.95;;;;;;;15.94;76.59;95873.16;4990039;28;20231;-89
2021/08/17 03:09:41;;;;;;;1.00;0.98;;;;;;;15.91;77.02;95870.97;4990321;28;20203;-86
2021/08/17 03:12:11;;;;;;;1.73;1.10;;;;;;;15.75;77.86;95869.59;4990064;28;20227;-88
2021/08/17 03:14:37;;;;;;;1.33;1.10;;;;;;;15.73;78.24;95868.19;4989714;28;20210;-86
2021/08/17 03:17:04;;;;;;;1.20;1.10;;;;;;;15.79;77.84;95875.94;4989994;28;20239;-86
2021/08/17 03:19:30;;;;;;;1.92;1.35;;;;;;;15.73;78.68;95873.38;4990006;28;20203;-87
2021/08/17 03:21:57;;;;;;;1.58;1.08;;;;;;;15.63;79.46;95878.16;4984963;28;20246;-86
2021/08/17 03:24:23;;;;;;;2.17;1.50;;;;;;;15.62;78.13;95884.34;4989865;28;20301;-87
2021/08/17 03:26:51;;;;;;;2.33;1.40;;;;;;;15.60;77.32;95881.94;4990057;28;20204;-87
2021/08/17 03:29:19;;;;;;;2.30;1.30;;;;;;;15.63;78.34;95888.53;4989952;28;20199;-87
2021/08/17 03:31:46;;;;;;;1.38;1.23;;;;;;;15.67;77.32;95887.94;4989849;28;20575;-87
2021/08/17 03:34:12;;;;;;;1.40;1.30;;;;;;;15.70;76.91;95899.72;4989517;28;20204;-86
2021/08/17 03:36:39;;;;;;;1.58;1.48;;;;;;;15.71;76.29;95894.34;4989785;28;20215;-87
2021/08/17 03:39:05;;;;;;;1.40;1.30;;;;;;;15.70;75.32;95890.16;4989893;28;20211;-87
2021/08/17 03:41:32;;;;;;;1.92;1.67;;;;;;;15.69;75.78;95895.53;4988684;28;20227;-88
2021/08/17 03:43:59;;;;;;;2.17;1.60;;;;;;;15.72;74.74;95897.75;4989511;28;20207;-88
2021/08/17 03:46:27;;;;;;;2.20;1.50;;;;;;;15.64;74.95;95900.53;4989387;28;20207;-86
2021/08/17 03:48:54;;;;;;;2.83;1.80;;;;;;;15.53;74.77;95905.31;4989958;28;20211;-87
2021/08/17 03:51:20;;;;;;;2.10;1.63;;;;;;;15.49;75.72;95898.91;4989650;28;20199;-87
2021/08/17 03:53:47;;;;;;;3.03;1.80;;;;;;;15.45;76.17;95904.69;4989539;28;20206;-87
2021/08/17 03:56:13;;;;;;;2.43;2.00;;;;;;;15.46;75.63;95911.47;4984894;28;20207;-86
2021/08/17 03:58:40;;;;;;;2.10;1.50;;;;;;;15.49;75.04;95909.28;4970347;28;20216;-86
2021/08/17 04:01:10;;;;;;;3.20;1.93;;;;;;;15.44;75.61;95914.25;4976731;28;20222;-87
2021/08/17 04:03:36;;;;;;;2.50;2.03;;;;;;;15.44;75.92;95914.25;4989494;28;20203;-87
2021/08/17 04:06:03;;;;;;;2.30;1.70;;;;;;;15.51;76.00;95922.06;4988917;28;20711;-87
2021/08/17 04:08:29;;;;;;;4.00;2.10;;;;;;;15.49;75.48;95924.06;4988656;28;20802;-85
2021/08/17 04:10:56;;;;;;;3.00;2.00;;;;;;;15.42;75.02;95920.66;4989521;28;20258;-83
2021/08/17 04:13:22;;;;;;;2.20;2.00;;;;;;;15.41;75.10;95921.63;4989638;28;20586;-85
2021/08/17 04:15:48;;;;;;;1.87;1.77;;;;;;;15.40;75.26;95918.25;4990068;28;20234;-84
2021/08/17 04:18:16;;;;;;;3.23;2.13;;;;;;;15.49;75.54;95922.25;4989810;28;20210;-81
2021/08/17 04:20:43;;;;;;;4.65;2.08;;;;;;;15.43;74.87;95930.81;4989652;28;20219;-82
2021/08/17 04:23:09;;;;;;;4.57;2.40;;;;;;;15.63;86.50;95932.66;4989637;28;20702;-87
2021/08/17 04:25:36;;;;;;;2.65;1.90;;;;;;;16.16;83.01;95931.63;4989904;28;20214;-81
2021/08/17 04:28:02;;;;;;;2.95;1.77;;;;;;;16.62;76.81;95933.34;4990408;28;20203;-81
2021/08/17 04:30:29;;;;;;;3.78;1.85;;;;;;;16.98;75.08;95943.22;4989992;28;20204;-86
2021/08/17 04:32:55;;;;;;;5.30;1.80;;;;;;;17.32;72.71;95946.47;4989682;28;20223;-86
2021/08/17 04:35:26;;;;;;;2.63;1.90;;;;;;;17.59;70.84;95943.47;4989464;28;20239;-86
2021/08/17 04:37:52;;;;;;;8.60;2.05;;;;;;;17.74;68.63;95937.97;4989327;28;20294;-86
2021/08/17 04:40:19;;;;;;;2.10;1.90;;;;;;;17.86;68.50;95949.31;4988794;28;20243;-87
2021/08/17 04:42:45;;;;;;;2.45;2.20;;;;;;;17.69;67.04;95961.28;4987079;28;20288;-86
2021/08/17 04:45:13;;;;;;;11.88;10.10;;;;;;;17.86;67.73;95957.13;4986815;28;20316;-86
2021/08/17 04:47:57;;;;;;;8.55;7.70;;;;;;;17.90;64.84;95958.28;4985414;28;20208;-87
2021/08/17 04:50:25;;;;;;;4.15;3.75;;;;;;;17.53;66.20;95965.13;4976390;28;20196;-84
2021/08/17 04:52:52;;;;;;;3.13;2.10;;;;;;;17.22;67.54;95970.31;4993945;28;20231;-84
2021/08/17 04:55:19;;;;;;;36.50;33.05;;;;;;;16.93;68.41;95972.44;4991163;28;20210;-85
2021/08/17 04:57:50;;;;;;;3.97;3.25;;;;;;;16.62;70.77;95961.94;4976863;28;20196;-85
2021/08/17 05:00:17;;;;;;;2.45;2.25;;;;;;;16.40;71.51;95965.78;4993927;28;20228;-86
2021/08/17 05:02:44;;;;;;;2.38;2.17;;;;;;;16.30;71.06;95968.81;4990487;28;20225;-83
2021/08/17 05:05:11;;;;;;;2.90;2.05;;;;;;;16.33;70.93;95972.81;4989255;28;20192;-85
2021/08/17 05:07:39;;;;;;;2.03;1.70;;;;;;;16.31;71.27;95974.81;4995600;28;20214;-85
2021/08/17 05:10:06;;;;;;;2.10;1.88;;;;;;;16.30;71.50;95984.41;4995953;28;20238;-86
2021/08/17 05:12:34;;;;;;;2.15;1.95;;;;;;;16.25;72.24;95986.78;4993001;28;20229;-84
2021/08/17 05:15:02;;;;;;;2.53;2.10;;;;;;;16.15;71.62;95995.03;4996659;28;20200;-87
2021/08/17 05:17:29;;;;;;;2.70;2.08;;;;;;;16.16;72.21;95994.00;4990583;28;20223;-84
2021/08/17 05:19:55;;;;;;;2.17;1.85;;;;;;;16.09;73.51;95992.41;4985237;28;20983;-85
2021/08/17 05:22:22;;;;;;;3.63;2.03;;;;;;;16.13;71.98;95991.81;4991397;28;20231;-86
2021/08/17 05:24:50;;;;;;;3.42;2.30;;;;;;;16.10;72.33;95994.81;4976301;28;20215;-84
2021/08/17 05:27:16;;;;;;;2.10;1.92;;;;;;;16.15;72.52;95997.63;4979081;28;20211;-84
2021/08/17 05:29:43;;;;;;;1.95;1.70;;;;;;;16.16;72.27;96001.78;4995256;28;20207;-86
2021/08/17 05:32:10;;;;;;;2.33;1.83;;;;;;;16.11;71.73;95998.22;4994885;28;20729;-85
2021/08/17 05:34:36;;;;;;;2.28;2.08;;;;;;;16.07;71.38;95997.00;4995236;28;20200;-86
2021/08/17 05:37:03;;;;;;;2.70;1.85;;;;;;;16.01;71.52;96001.19;4984077;28;21206;-86
2021/08/17 05:39:29;;;;;;;2.45;2.25;;;;;;;16.04;71.55;96000.00;4995247;28;20204;-84
2021/08/17 05:41:57;;;;;;;1.67;1.58;;;;;;;16.08;71.62;96003.81;4993573;28;20230;-85
2021/08/17 05:44:24;;;;;;;3.83;2.17;;;;;;;16.09;70.59;96003.59;4994333;28;20211;-86
2021/08/17 05:46:50;;;;;;;4.85;2.58;;;;;;;16.08;70.11;96004.59;4995204;28;20243;-86
2021/08/17 05:49:17;;;;;;;4.00;2.63;;;;;;;16.05;70.23;96012.78;4996158;28;20206;-86
2021/08/17 05:51:43;;;;;;;3.83;2.67;;;;;;;16.10;70.57;96007.81;4976262;28;20228;-84
2021/08/17 05:54:16;;;;;;;3.60;2.72;;;;;;;16.19;70.30;96005.78;4986478;28;20214;-84
2021/08/17 05:56:42;;;;;;;3.80;2.60;;;;;;;16.21;70.22;96008.97;4995203;28;20250;-86
2021/08/17 05:59:10;;;;;;;2.88;2.55;;;;;;;16.23;70.30;96012.97;4997297;28;20683;-85
2021/08/17 06:01:36;;;;;;;3.08;2.63;;;;;;;16.22;70.23;96011.38;4999028;28;20230;-85
2021/08/17 06:04:03;;;;;;;3.85;3.22;;;;;;;16.17;67.86;96010.38;4993460;28;20204;-84
2021/08/17 06:06:32;;;;;;;4.78;3.03;;;;;;;16.30;68.31;96014.78;4993065;28;20605;-84
2021/08/17 06:08:58;;;;;;;3.47;3.08;;;;;;;16.16;67.50;96021.78;4987799;28;20199;-86
2021/08/17 06:11:24;;;;;;;4.32;3.30;;;;;;;16.09;68.09;96024.38;4994058;28;20211;-85
2021/08/17 06:14:08;;;;;;;6.68;3.22;;;;;;;16.10;67.36;96027.78;4992682;28;20199;-84
2021/08/17 06:16:46;;;;;;;3.67;3.17;;;;;;;15.94;65.26;96034.16;4992686;28;20199;-84
2021/08/17 06:19:15;;;;;;;4.97;3.20;;;;;;;15.88;66.04;96032.34;4992458;28;20207;-84
2021/08/17 06:21:41;;;;;;;4.93;3.17;;;;;;;16.01;66.86;96028.97;4993539;28;20704;-86
2021/08/17 06:24:18;;;;;;;5.00;3.28;;;;;;;16.15;66.95;96034.00;4993798;28;20200;-84
2021/08/17 06:26:48;;;;;;;3.95;2.97;;;;;;;16.11;66.43;96042.38;4992976;28;20230;-86
2021/08/17 06:29:25;;;;;;;5.43;3.53;;;;;;;16.14;66.69;96050.56;4992869;28;20199;-84
2021/08/17 06:32:09;;;;;;;6.03;3.15;;;;;;;16.22;64.92;96057.34;4992173;28;20618;-83
2021/08/17 06:34:35;;;;;;;5.07;3.30;;;;;;;16.30;66.49;96049.38;4991438;28;20195;-86
2021/08/17 06:37:03;;;;;;;5.80;2.97;;;;;;;16.22;64.66;96052.16;4998974;28;20207;-87
2021/08/17 06:39:40;;;;;;;3.40;2.90;;;;;;;16.17;64.36;96044.94;4992475;28;20597;-87
2021/08/17 06:42:15;;;;;;;3.63;3.25;;;;;;;16.23;65.73;96048.56;4992072;28;20591;-86
2021/08/17 06:44:42;;;;;;;5.53;3.13;;;;;;;16.28;67.21;96053.97;4991257;28;20314;-85
2021/08/17 06:47:16;;;;;;;6.32;3.17;;;;;;;16.43;66.22;96053.75;4991635;28;20258;-87
2021/08/17 06:49:48;;;;;;;5.47;3.17;;;;;;;16.47;66.05;96055.75;4991360;28;20195;-85
2021/08/17 06:52:38;;;;;;;3.90;3.10;;;;;;;16.47;63.93;96058.34;4991285;28;20661;-85
2021/08/17 06:55:22;;;;;;;3.67;3.08;;;;;;;16.33;63.92;96051.56;4929931;29;20733;-85
2021/08/17 06:57:49;;;;;;;3.78;2.90;;;;;;;16.54;64.51;96066.97;4991401;28;20738;-85
2021/08/17 07:00:16;;;;;;;4.55;3.05;;;;;;;16.64;63.88;96069.16;4991583;28;20235;-86
2021/08/17 07:02:44;;;;;;;3.38;2.78;;;;;;;16.57;62.68;96065.72;4991967;28;20224;-85
2021/08/17 07:05:11;;;;;;;3.70;2.83;;;;;;;16.62;64.70;96058.13;4991199;28;20671;-86
2021/08/17 07:07:37;;;;;;;3.40;3.10;;;;;;;16.68;63.95;96075.56;4991886;28;20810;-85
2021/08/17 07:10:05;;;;;;;4.25;2.90;;;;;;;16.78;63.36;96064.72;4990188;28;20200;-85
2021/08/17 07:12:32;;;;;;;3.95;3.53;;;;;;;16.73;62.91;96060.16;4991140;28;20231;-86
2021/08/17 07:14:58;;;;;;;3.58;3.00;;;;;;;16.64;63.94;96056.16;4991715;28;20215;-85
2021/08/17 07:17:25;;;;;;;3.25;2.95;;;;;;;16.72;63.89;96055.16;4991411;28;20196;-86
2021/08/17 07:19:53;;;;;;;3.80;2.80;;;;;;;16.75;62.12;96052.13;4988156;28;20211;-84
2021/08/17 07:22:19;;;;;;;2.95;2.65;;;;;;;16.89;60.71;96054.53;4972992;28;20577;-86
2021/08/17 07:24:46;;;;;;;3.33;2.63;;;;;;;16.86;60.31;96065.31;4971882;28;20204;-86
2021/08/17 07:27:12;;;;;;;3.00;2.38;;;;;;;16.99;59.24;96064.47;4984415;28;20207;-86
2021/08/17 07:29:39;;;;;;;4.20;2.60;;;;;;;17.10;59.52;96063.88;4991439;28;20203;-86
2021/08/17 07:32:06;;;;;;;3.60;2.65;;;;;;;17.10;59.29;96063.06;4991193;28;20220;-85
2021/08/17 07:34:32;;;;;;;3.33;2.97;;;;;;;16.98;59.14;96065.50;4990643;28;20222;-88
2021/08/17 07:37:00;;;;;;;3.80;2.47;;;;;;;16.91;58.16;96070.72;5002037;28;20222;-86
2021/08/17 07:39:27;;;;;;;2.85;2.50;;;;;;;17.00;57.34;96068.69;4998867;28;20199;-87
2021/08/17 07:41:53;;;;;;;3.28;2.50;;;;;;;16.97;55.78;96060.47;4991865;28;20269;-84
2021/08/17 07:44:20;;;;;;;3.17;2.40;;;;;;;17.21;55.66;96072.81;4990128;28;20687;-86
2021/08/17 07:46:46;;;;;;;2.63;2.38;;;;;;;17.44;56.92;96078.34;4990633;28;20210;-85
2021/08/17 07:49:13;;;;;;;4.38;2.40;;;;;;;17.56;57.07;96071.47;4988726;28;20203;-86
2021/08/17 07:51:39;;;;;;;3.22;2.40;;;;;;;17.69;55.66;96070.66;4990522;28;20223;-87
2021/08/17 07:54:07;;;;;;;3.10;2.40;;;;;;;17.89;54.08;96073.94;4991357;28;20226;-84
2021/08/17 07:56:35;;;;;;;3.28;2.70;;;;;;;18.05;54.86;96070.03;4991608;28;20204;-86
2021/08/17 07:59:01;;;;;;;3.60;2.67;;;;;;;18.18;55.01;96079.56;4987259;28;20192;-86
2021/08/17 08:01:28;;;;;;;2.70;2.50;;;;;;;17.89;53.31;96070.53;4980995;28;20227;-86
2021/08/17 08:03:56;;;;;;;2.63;2.28;;;;;;;17.87;53.90;96073.34;4980399;28;20200;-85
2021/08/17 08:06:22;;;;;;;3.90;2.80;;;;;;;17.92;53.32;96078.72;4976885;28;20228;-86
2021/08/17 08:08:49;;;;;;;4.10;2.63;;;;;;;17.91;54.80;96076.31;4983939;28;20667;-85
2021/08/17 08:11:17;;;;;;;4.18;3.00;;;;;;;17.88;55.99;96077.56;4975289;28;20207;-86
2021/08/17 08:13:43;;;;;;;3.63;2.53;;;;;;;18.12;53.94;96070.78;4977890;28;20196;-85
2021/08/17 08:16:10;;;;;;;3.65;2.78;;;;;;;18.39;53.40;96068.78;4972569;28;20211;-86
2021/08/17 08:18:36;;;;;;;5.68;2.97;;;;;;;18.48;52.90;96074.50;4972252;28;20206;-86
2021/08/17 08:21:05;;;;;;;2.95;2.30;;;;;;;18.57;50.67;96076.63;4982528;28;20207;-87
2021/08/17 08:23:32;;;;;;;3.53;2.97;;;;;;;18.69;51.51;96061.09;4989210;28;20238;-86
2021/08/17 08:25:58;;;;;;;3.20;2.75;;;;;;;18.78;51.18;96072.88;4996759;28;20203;-88
2021/08/17 08:28:26;;;;;;;3.70;2.70;;;;;;;19.02;51.97;96060.78;5008269;28;20200;-87
2021/08/17 08:30:52;;;;;;;3.10;2.80;;;;;;;19.16;50.34;96064.03;4986947;28;20227;-87
2021/08/17 08:33:19;;;;;;;3.40;2.90;;;;;;;19.25;49.25;96071.34;4988650;28;20221;-86
2021/08/17 08:35:45;;;;;;;3.40;2.80;;;;;;;19.16;48.73;96067.44;4998316;28;20208;-86
2021/08/17 08:38:12;;;;;;;3.80;2.80;;;;;;;19.14;49.14;96068.69;5003183;28;20203;-87
2021/08/17 08:40:39;;;;;;;3.55;2.85;;;;;;;19.18;49.49;96064.63;4992748;28;20584;-86
2021/08/17 08:43:05;;;;;;;3.97;2.40;;;;;;;19.40;49.97;96067.59;4993559;28;20227;-87
2021/08/17 08:45:33;;;;;;;3.88;2.70;;;;;;;19.61;48.84;96065.34;4993617;28;20207;-86
2021/08/17 08:48:00;;;;;;;3.60;3.20;;;;;;;19.82;48.88;96071.84;4993145;28;20213;-86
2021/08/17 08:50:29;;;;;;;3.17;2.88;;;;;;;19.78;47.72;96070.72;4993222;28;20204;-87
2021/08/17 08:52:58;;;;;;;3.50;2.72;;;;;;;19.73;48.19;96064.56;4993578;28;20362;-86
2021/08/17 08:55:25;;;;;;;2.92;2.60;;;;;;;19.96;47.98;96064.66;4983200;28;20204;-87
2021/08/17 08:57:52;;;;;;;3.42;2.60;;;;;;;19.87;48.42;96068.59;4978574;28;20726;-87
2021/08/17 09:00:18;;;;;;;2.70;2.50;;;;;;;19.71;49.99;96066.59;4991421;28;20702;-86
2021/08/17 09:02:46;;;;;;;3.55;2.40;;;;;;;19.76;47.79;96071.97;4994047;28;20254;-87
2021/08/17 09:05:13;;;;;;;5.50;2.88;;;;;;;19.57;48.31;96071.22;4993147;28;20208;-86
2021/08/17 09:07:43;;;;;;;3.33;2.90;;;;;;;19.66;48.34;96075.09;4993992;28;20203;-88
2021/08/17 09:10:12;;;;;;;3.15;2.53;;;;;;;19.90;47.94;96062.91;4993051;28;20214;-87
2021/08/17 09:12:40;;;;;;;4.40;2.97;;;;;;;20.17;47.02;96064.13;4993385;28;20620;-87
2021/08/17 09:15:12;;;;;;;3.75;2.95;;;;;;;20.11;46.10;96066.84;4993049;28;20200;-87
2021/08/17 09:17:40;;;;;;;3.20;2.85;;;;;;;20.29;45.98;96062.34;4993320;28;20214;-86
2021/08/17 09:20:15;;;;;;;2.88;2.60;;;;;;;20.35;45.86;96063.25;4989931;28;20202;-84
2021/08/17 09:22:42;;;;;;;2.95;2.60;;;;;;;20.28;47.07;96068.56;4973128;28;20236;-83
2021/08/17 09:25:10;;;;;;;4.38;3.10;;;;;;;20.26;48.01;96069.81;4973660;28;20809;-88
2021/08/17 09:27:37;;;;;;;3.72;2.63;;;;;;;20.35;47.42;96060.63;4991000;28;20195;-84
2021/08/17 09:30:11;;;;;;;3.20;2.90;;;;;;;20.30;48.20;96057.91;4991248;28;20196;-84
2021/08/17 09:32:51;;;;;;;3.70;2.50;;;;;;;20.03;47.65;96065.34;4991730;28;20223;-86
2021/08/17 09:35:21;;;;;;;2.95;2.58;;;;;;;19.96;47.78;96060.22;4989261;28;20202;-86
2021/08/17 09:38:05;;;;;;;3.63;2.78;;;;;;;19.64;48.30;96058.84;4981585;28;20215;-84
2021/08/17 09:40:33;;;;;;;2.92;2.55;;;;;;;19.60;49.49;96053.28;4987257;28;20199;-85
2021/08/17 09:43:15;;;;;;;3.78;2.58;;;;;;;19.41;49.53;96050.91;4992165;28;20707;-84
2021/08/17 09:45:42;;;;;;;2.95;2.40;;;;;;;19.33;48.01;96036.31;4992822;28;20207;-85
2021/08/17 09:48:11;;;;;;;3.08;2.65;;;;;;;19.66;48.67;96039.31;4992298;28;20294;-85
2021/08/17 09:50:42;;;;;;;3.00;2.45;;;;;;;19.78;48.78;96028.94;4991358;28;20216;-86
2021/08/17 09:53:11;;;;;;;2.80;2.53;;;;;;;19.67;48.87;96021.81;4991705;28;20715;-83
2021/08/17 09:55:46;;;;;;;6.13;3.40;;;;;;;19.95;47.21;96016.81;4993088;28;20231;-86
2021/08/17 09:58:27;;;;;;;3.78;2.70;;;;;;;20.56;47.77;96015.66;4992121;28;20738;-86
2021/08/17 10:00:55;;;;;;;3.90;2.70;;;;;;;20.65;46.62;96006.41;4992931;28;20274;-84
2021/08/17 10:03:23;;;;;;;4.80;3.30;;;;;;;20.81;47.49;96018.00;4991189;28;20310;-85
2021/08/17 10:05:53;;;;;;;3.30;2.90;;;;;;;21.18;46.79;96020.31;4991319;28;20227;-84
2021/08/17 10:08:22;;;;;;;2.70;2.50;;;;;;;21.48;45.68;96014.91;4992500;28;20202;-84
2021/08/17 10:10:51;;;;;;;3.60;2.92;;;;;;;21.65;44.63;96016.53;4991248;28;20755;-85
2021/08/17 10:13:20;;;;;;;2.83;2.63;;;;;;;21.54;44.69;96009.53;4991270;28;20230;-87
2021/08/17 10:15:48;;;;;;;2.95;2.65;;;;;;;21.62;44.89;96005.72;4991582;28;20215;-87
2021/08/17 10:18:17;;;;;;;3.03;2.67;;;;;;;21.32;43.91;96008.59;4992186;28;20271;-87
2021/08/17 10:20:47;;;;;;;3.88;2.85;;;;;;;21.32;45.60;96004.13;4990463;28;20207;-87
2021/08/17 10:23:18;;;;;;;4.05;2.78;;;;;;;21.03;44.85;96000.66;4991462;28;20270;-87
2021/08/17 10:25:46;;;;;;;3.20;2.60;;;;;;;20.99;45.23;96004.75;4989831;28;20195;-86
2021/08/17 10:28:24;;;;;;;4.55;2.80;;;;;;;21.11;45.25;95999.50;4972163;28;20871;-87
2021/08/17 10:30:51;;;;;;;2.53;2.30;;;;;;;21.19;43.78;95995.72;4972796;28;20699;-88
2021/08/17 10:33:37;;;;;;;4.25;3.05;;;;;;;21.35;43.70;95992.41;4991548;28;20246;-88
2021/08/17 10:36:06;;;;;;;4.80;2.80;;;;;;;21.37;45.89;95983.25;4992591;28;20210;-87
2021/08/17 10:38:40;;;;;;;4.78;2.70;;;;;;;21.35;45.54;95984.53;4992708;28;20211;-87
2021/08/17 10:41:11;;;;;;;3.53;2.75;;;;;;;20.98;47.67;95982.22;4987233;28;20200;-87
2021/08/17 10:44:08;;;;;;;2.83;2.53;;;;;;;21.08;46.13;95973.78;4992230;28;20223;-87
2021/08/17 10:46:56;;;;;;;4.13;2.50;;;;;;;21.26;44.28;95972.84;4992808;28;20203;-87
2021/08/17 10:49:30;;;;;;;3.67;2.50;;;;;;;21.06;47.30;95973.22;4984222;28;20204;-87
2021/08/17 10:51:59;;;;;;;3.80;3.25;;;;;;;21.29;48.03;95967.94;4991297;28;20222;-86
2021/08/17 10:54:27;;;;;;;3.30;2.58;;;;;;;21.13;47.33;95963.41;4993544;28;20218;-87
2021/08/17 10:56:55;;;;;;;3.72;2.72;;;;;;;21.13;46.75;95960.78;4994415;28;20199;-86
2021/08/17 10:59:38;;;;;;;2.92;2.45;;;;;;;20.97;45.72;95964.91;4986726;28;20200;-87
2021/08/17 11:02:09;;;;;;;4.15;2.50;;;;;;;20.94;46.47;95965.41;4989955;28;20231;-88
2021/08/17 11:04:41;;;;;;;3.92;2.63;;;;;;;21.17;45.04;95961.09;4994556;28;20230;-87
2021/08/17 11:07:26;;;;;;;2.80;2.50;;;;;;;20.99;44.01;95957.63;4993052;28;20623;-87
2021/08/17 11:09:56;;;;;;;2.78;2.58;;;;;;;20.87;44.70;95961.31;4992709;28;20209;-88
2021/08/17 11:12:31;;;;;;;4.68;2.40;;;;;;;21.00;45.23;95963.66;4992350;28;20639;-88
2021/08/17 11:15:04;;;;;;;3.00;2.53;;;;;;;21.20;44.77;95960.66;4994302;28;20195;-86
2021/08/17 11:17:33;;;;;;;2.85;2.47;;;;;;;21.32;44.79;95959.59;4991902;28;20275;-86
2021/08/17 11:19:59;;;;;;;3.60;2.65;;;;;;;21.29;46.06;95954.84;4991660;28;20213;-87
2021/08/17 11:22:28;;;;;;;3.40;2.47;;;;;;;21.19;44.54;95956.41;4989194;28;20250;-85
2021/08/17 11:24:58;;;;;;;2.65;2.30;;;;;;;21.11;43.67;95959.44;4991609;28;20210;-87
2021/08/17 11:27:26;;;;;;;2.50;2.30;;;;;;;21.06;44.57;95960.13;4992730;28;20195;-85
2021/08/17 11:29:54;;;;;;;3.95;2.63;;;;;;;21.13;44.75;95965.22;4991588;28;20234;-83
2021/08/17 11:32:30;;;;;;;2.85;2.55;;;;;;;21.07;45.09;95963.53;4991754;28;20224;-82
2021/08/17 11:34:57;;;;;;;3.47;2.75;;;;;;;21.14;45.98;95961.59;4989210;28;20221;-82
2021/08/17 11:37:24;;;;;;;2.90;2.50;;;;;;;21.34;45.13;95954.13;4986365;28;20210;-86
2021/08/17 11:39:52;;;;;;;4.18;2.58;;;;;;;21.20;44.22;95958.03;4991779;28;20195;-86